createdAt,value
2019-01-15T00:01:48.473Z,99451.28
2019-01-15T00:03:57.314Z,99446.53
2019-01-15T00:05:59.279Z,99449.01
2019-01-15T00:08:00.095Z,99453.55
2019-01-15T00:10:02.505Z,99451.44
2019-01-15T00:12:07.810Z,99447.09
2019-01-15T00:14:06.816Z,99451.02
2019-01-15T00:16:07.640Z,99458.80
2019-01-15T00:18:08.483Z,99454.99
2019-01-15T00:20:11.767Z,99451.13
2019-01-15T00:22:12.472Z,99461.59
2019-01-15T00:24:13.525Z,99451.23
2019-01-15T00:26:14.746Z,99463.19
2019-01-15T00:28:15.741Z,99460.82
2019-01-15T00:30:16.759Z,99462.63
2019-01-15T00:32:17.614Z,99467.27
2019-01-15T00:34:18.783Z,99470.83
2019-01-15T00:36:20.642Z,99473.67
2019-01-15T00:38:21.693Z,99475.31
2019-01-15T00:40:24.738Z,99477.69
2019-01-15T00:42:25.634Z,99474.18
2019-01-15T00:44:29.086Z,99477.17
2019-01-15T00:46:30.141Z,99481.35
2019-01-15T00:48:31.293Z,99479.80
2019-01-15T00:50:31.992Z,99482.38
2019-01-15T00:52:35.520Z,99481.55
2019-01-15T00:54:36.244Z,99488.38
2019-01-15T00:56:37.199Z,99484.60
2019-01-15T00:58:38.146Z,99488.06
2019-01-15T01:00:39.194Z,99485.63
2019-01-15T01:02:39.883Z,99485.63
2019-01-15T01:04:47.763Z,99485.06
2019-01-15T01:06:48.760Z,99490.43
2019-01-15T01:08:49.434Z,99487.75
2019-01-15T01:10:50.414Z,99492.55
2019-01-15T01:12:51.144Z,99488.16
2019-01-15T01:14:52.140Z,99490.47
2019-01-15T01:16:54.529Z,99484.95
2019-01-15T01:18:55.563Z,99486.66
2019-01-15T01:20:56.572Z,99488.67
2019-01-15T01:22:58.906Z,99485.67
2019-01-15T01:25:02.015Z,99490.35
2019-01-15T01:27:04.689Z,99496.58
2019-01-15T01:29:05.832Z,99494.16
2019-01-15T01:31:11.979Z,99490.53
2019-01-15T01:33:17.504Z,99491.63
2019-01-15T01:37:56.636Z,99491.83
2019-01-15T01:39:57.377Z,99492.52
2019-01-15T01:41:58.548Z,99491.20
2019-01-15T01:43:59.658Z,99496.38
2019-01-15T01:46:00.857Z,99497.13
2019-01-15T01:48:02.891Z,99498.61
2019-01-15T01:50:06.855Z,99501.92
2019-01-15T01:52:07.987Z,99510.40
2019-01-15T01:54:08.779Z,99511.73
2019-01-15T01:56:11.813Z,99515.21
2019-01-15T01:58:12.614Z,99518.61
2019-01-15T02:00:16.464Z,99518.52
2019-01-15T02:02:25.683Z,99519.65
2019-01-15T02:04:26.751Z,99527.58
2019-01-15T02:06:31.425Z,99525.95
2019-01-15T02:08:32.355Z,99527.70
2019-01-15T02:10:33.336Z,99525.66
2019-01-15T02:12:36.938Z,99527.80
2019-01-15T02:14:37.365Z,99525.59
2019-01-15T02:16:38.502Z,99523.53
2019-01-15T02:18:45.379Z,99532.56
2019-01-15T02:20:46.496Z,99531.67
2019-01-15T02:22:47.488Z,99521.03
2019-01-15T02:24:48.459Z,99527.25
2019-01-15T02:26:52.466Z,99523.74
2019-01-15T02:28:53.325Z,99525.59
2019-01-15T02:30:54.063Z,99519.98
2019-01-15T02:32:54.782Z,99508.73
2019-01-15T02:34:55.768Z,99503.32
2019-01-15T02:36:56.652Z,99507.48
2019-01-15T02:38:57.637Z,99517.14
2019-01-15T02:40:58.562Z,99511.95
2019-01-15T02:42:59.333Z,99516.11
2019-01-15T02:45:00.464Z,99513.47
2019-01-15T02:47:01.303Z,99522.64
2019-01-15T02:49:05.764Z,99514.80
2019-01-15T02:51:12.962Z,99517.40
2019-01-15T02:53:15.664Z,99522.02
2019-01-15T02:55:35.372Z,99526.26
2019-01-15T02:57:24.166Z,99514.82
2019-01-15T02:59:25.105Z,99512.78
2019-01-15T03:01:26.583Z,99518.81
2019-01-15T03:03:27.427Z,99508.97
2019-01-15T03:05:28.348Z,99516.59
2019-01-15T03:07:29.210Z,99516.67
2019-01-15T03:09:30.349Z,99523.47
2019-01-15T03:11:31.200Z,99526.14
2019-01-15T03:13:31.831Z,99514.81
2019-01-15T03:15:33.729Z,99506.27
2019-01-15T03:17:34.341Z,99506.27
2019-01-15T03:19:35.264Z,99506.53
2019-01-15T03:21:37.147Z,99505.34
2019-01-15T03:23:43.601Z,99494.10
2019-01-15T03:25:47.206Z,99499.26
2019-01-15T03:27:48.860Z,99498.17
2019-01-15T03:29:49.807Z,99495.66
2019-01-15T03:31:51.778Z,99488.39
2019-01-15T03:33:53.748Z,99485.54
2019-01-15T03:35:54.629Z,99480.33
2019-01-15T03:40:28.213Z,99488.52
2019-01-15T03:42:29.113Z,99493.44
2019-01-15T03:44:29.849Z,99483.48
2019-01-15T03:46:30.534Z,99493.02
2019-01-15T03:48:31.526Z,99495.69
2019-01-15T03:50:33.208Z,99494.03
2019-01-15T03:52:34.258Z,99494.63
2019-01-15T03:54:35.089Z,99483.86
2019-01-15T03:56:36.169Z,99474.55
2019-01-15T03:58:37.360Z,99484.55
2019-01-15T04:00:38.361Z,99483.92
2019-01-15T04:02:39.164Z,99481.11
2019-01-15T04:04:40.422Z,99471.62
2019-01-15T04:06:41.428Z,99473.98
2019-01-15T04:08:42.323Z,99476.52
2019-01-15T04:10:43.185Z,99474.34
2019-01-15T04:12:43.844Z,99475.03
2019-01-15T04:14:44.722Z,99484.29
2019-01-15T04:16:50.417Z,99477.28
2019-01-15T04:18:51.311Z,99467.94
2019-01-15T04:20:51.992Z,99468.66
2019-01-15T04:22:55.004Z,99464.13
2019-01-15T04:24:58.229Z,99466.15
2019-01-15T04:26:59.299Z,99458.11
2019-01-15T04:29:00.367Z,99447.34
2019-01-15T04:31:01.301Z,99457.75
2019-01-15T04:33:03.807Z,99460.83
2019-01-15T04:35:07.835Z,99456.50
2019-01-15T04:37:08.774Z,99459.12
2019-01-15T04:39:09.806Z,99462.05
2019-01-15T04:41:15.324Z,99463.97
2019-01-15T04:43:19.908Z,99459.64
2019-01-15T04:45:19.385Z,99465.56
2019-01-15T04:47:20.074Z,99465.92
2019-01-15T04:49:21.039Z,99468.34
2019-01-15T04:51:22.038Z,99468.07
2019-01-15T04:53:25.044Z,99467.77
2019-01-15T04:55:26.196Z,99469.06
2019-01-15T04:57:27.002Z,99468.34
2019-01-15T04:59:27.898Z,99474.48
2019-01-15T05:01:39.044Z,99474.38
2019-01-15T05:03:41.317Z,99467.02
2019-01-15T05:05:42.307Z,99464.50
2019-01-15T05:07:43.247Z,99467.50
2019-01-15T05:09:44.251Z,99459.56
2019-01-15T05:11:45.395Z,99460.89
2019-01-15T05:13:47.760Z,99457.06
2019-01-15T05:15:48.790Z,99459.94
2019-01-15T05:25:33.874Z,99455.81
2019-01-15T05:27:34.993Z,99449.17
2019-01-15T05:29:35.957Z,99449.33
2019-01-15T05:31:37.111Z,99450.52
2019-01-15T05:33:38.171Z,99451.02
2019-01-15T05:35:43.154Z,99459.25
2019-01-15T05:37:43.918Z,99457.30
2019-01-15T05:42:22.988Z,99452.77
2019-01-15T05:44:24.112Z,99444.94
2019-01-15T05:46:25.348Z,99449.66
2019-01-15T05:48:26.137Z,99447.50
2019-01-15T05:50:26.797Z,99442.75
2019-01-15T05:52:27.698Z,99450.84
2019-01-15T05:54:30.808Z,99460.13
2019-01-15T05:56:35.403Z,99470.44
2019-01-15T05:58:48.337Z,99465.80
2019-01-15T06:00:52.068Z,99458.53
2019-01-15T06:02:52.840Z,99456.42
2019-01-15T06:04:56.146Z,99453.63
2019-01-15T06:06:56.916Z,99454.19
2019-01-15T06:08:58.277Z,99456.86
2019-01-15T06:11:01.740Z,99454.25
2019-01-15T06:13:03.089Z,99444.96
2019-01-15T06:49:18.294Z,99429.52
2019-01-15T06:51:28.204Z,99437.41
2019-01-15T06:54:05.751Z,99427.99
2019-01-15T06:56:09.660Z,99430.63
2019-01-15T06:58:10.683Z,99429.48
2019-01-15T07:00:23.427Z,99437.48
2019-01-15T07:02:32.743Z,99440.27
2019-01-15T07:04:43.899Z,99432.62
2019-01-15T07:06:40.618Z,99420.83
2019-01-15T07:08:41.691Z,99424.00
2019-01-15T07:10:55.654Z,99428.55
2019-01-15T07:12:48.065Z,99430.57
2019-01-15T07:14:56.060Z,99427.22
2019-01-15T07:16:55.898Z,99427.99
2019-01-15T07:18:56.994Z,99426.25
2019-01-15T07:21:08.792Z,99428.87
2019-01-15T07:23:09.638Z,99427.34
2019-01-15T07:25:22.033Z,99427.41
2019-01-15T07:27:22.834Z,99427.14
2019-01-15T07:29:24.734Z,99430.45
2019-01-15T07:31:27.127Z,99426.58
2019-01-15T07:33:28.278Z,99420.27
2019-01-15T07:35:29.107Z,99419.17
2019-01-15T07:37:29.978Z,99415.91
2019-01-15T07:39:30.705Z,99418.66
2019-01-15T07:41:33.391Z,99418.06
2019-01-15T07:43:35.391Z,99429.89
2019-01-15T07:45:36.523Z,99429.92
2019-01-15T07:47:44.467Z,99430.02
2019-01-15T07:49:45.429Z,99424.88
2019-01-15T07:51:46.175Z,99430.38
2019-01-15T07:53:49.691Z,99430.48
2019-01-15T07:55:50.613Z,99431.58
2019-01-15T07:57:51.983Z,99429.63
2019-01-15T07:59:53.960Z,99427.38
2019-01-15T08:01:56.782Z,99435.73
2019-01-15T08:03:59.240Z,99435.08
2019-01-15T08:06:00.077Z,99441.64
2019-01-15T08:08:03.232Z,99442.14
2019-01-15T08:10:08.171Z,99443.69
2019-01-15T08:12:08.955Z,99442.45
2019-01-15T08:14:19.896Z,99445.34
2019-01-15T08:16:12.712Z,99445.91
2019-01-15T08:18:16.150Z,99450.20
2019-01-15T08:20:20.268Z,99444.67
2019-01-15T08:22:21.593Z,99434.77
2019-01-15T08:24:24.381Z,99432.28
2019-01-15T08:26:26.139Z,99445.69
2019-01-15T08:28:27.153Z,99446.59
2019-01-15T08:30:33.481Z,99442.87
2019-01-15T08:32:43.138Z,99437.59
2019-01-15T08:34:44.182Z,99444.98
2019-01-15T08:36:45.054Z,99440.60
2019-01-15T08:38:45.794Z,99448.53
2019-01-15T08:40:46.784Z,99437.22
2019-01-15T08:42:47.516Z,99429.47
2019-01-15T08:44:48.194Z,99436.78
2019-01-15T08:46:48.855Z,99439.98
2019-01-15T08:48:49.529Z,99432.59
2019-01-15T08:50:50.508Z,99443.74
2019-01-15T08:52:51.486Z,99449.84
2019-01-15T08:54:52.460Z,99449.95
2019-01-15T08:56:55.147Z,99448.69
2019-01-15T08:58:57.075Z,99442.88
2019-01-15T09:00:58.268Z,99441.80
2019-01-15T09:03:00.611Z,99418.71
2019-01-15T09:05:01.949Z,99433.30
2019-01-15T09:07:02.791Z,99441.16
2019-01-15T09:09:06.461Z,99439.66
2019-01-15T09:11:07.832Z,99439.19
2019-01-15T09:13:11.138Z,99438.25
2019-01-15T09:15:14.274Z,99432.30
2019-01-15T09:17:16.568Z,99439.61
2019-01-15T09:19:17.501Z,99438.68
2019-01-15T09:21:27.195Z,99422.36
2019-01-15T09:23:30.035Z,99419.64
2019-01-15T09:25:31.305Z,99427.06
2019-01-15T09:27:32.455Z,99419.56
2019-01-15T09:29:33.253Z,99420.20
2019-01-15T09:31:34.267Z,99420.91
2019-01-15T09:33:45.150Z,99428.08
2019-01-15T09:35:42.156Z,99427.64
2019-01-15T09:37:43.087Z,99411.43
2019-01-15T09:39:43.921Z,99408.41
2019-01-15T09:41:48.076Z,99407.60
2019-01-15T09:43:53.025Z,99392.23
2019-01-15T09:45:53.930Z,99412.46
2019-01-15T09:47:54.817Z,99407.31
2019-01-15T09:49:55.972Z,99387.23
2019-01-15T09:51:57.043Z,99412.74
2019-01-15T09:53:59.114Z,99403.71
2019-01-15T09:56:00.258Z,99397.25
2019-01-15T09:58:02.687Z,99400.45
2019-01-15T10:00:12.408Z,99413.86
2019-01-15T10:02:36.141Z,99404.22
2019-01-15T10:04:18.258Z,99392.75
2019-01-15T10:06:21.348Z,99396.41
2019-01-15T10:08:22.280Z,99403.00
2019-01-15T10:10:27.510Z,99399.70
2019-01-15T10:12:25.907Z,99397.94
2019-01-15T10:14:28.024Z,99386.77
2019-01-15T10:16:29.432Z,99374.55
2019-01-15T10:18:30.691Z,99396.31
2019-01-15T10:20:33.102Z,99391.02
2019-01-15T10:22:34.194Z,99397.14
2019-01-15T10:24:46.708Z,99402.44
2019-01-15T10:26:47.243Z,99391.97
2019-01-15T10:28:57.045Z,99386.32
2019-01-15T10:31:16.532Z,99393.50
2019-01-15T10:33:25.003Z,99386.67
2019-01-15T10:35:32.852Z,99391.50
2019-01-15T10:37:33.476Z,99392.79
2019-01-15T10:39:34.146Z,99387.02
2019-01-15T10:41:35.095Z,99393.02
2019-01-15T10:43:36.250Z,99379.72
2019-01-15T10:45:37.063Z,99371.95
2019-01-15T10:47:38.433Z,99366.78
2019-01-15T10:49:39.528Z,99368.87
2019-01-15T10:51:41.520Z,99374.17
2019-01-15T10:53:43.555Z,99369.34
2019-01-15T10:55:46.970Z,99362.75
2019-01-15T10:57:49.352Z,99371.22
2019-01-15T10:59:50.408Z,99367.11
2019-01-15T11:01:51.632Z,99359.10
2019-01-15T11:03:53.553Z,99362.16
2019-01-15T11:05:56.713Z,99371.56
2019-01-15T11:08:06.992Z,99367.45
2019-01-15T11:10:13.953Z,99362.97
2019-01-15T11:12:19.835Z,99340.97
2019-01-15T11:14:19.366Z,99347.79
2019-01-15T11:16:21.728Z,99361.42
2019-01-15T11:18:22.690Z,99352.83
2019-01-15T11:20:26.290Z,99351.06
2019-01-15T11:22:27.580Z,99343.64
2019-01-15T11:24:28.460Z,99358.82
2019-01-15T11:26:40.026Z,99350.70
2019-01-15T11:28:33.827Z,99342.92
2019-01-15T11:30:34.565Z,99351.85
2019-01-15T11:32:35.779Z,99338.91
2019-01-15T11:34:36.750Z,99338.43
2019-01-15T11:36:39.606Z,99330.19
2019-01-15T11:38:40.574Z,99328.99
2019-01-15T11:40:41.799Z,99329.55
2019-01-15T11:42:44.574Z,99324.98
2019-01-15T11:44:46.012Z,99325.21
2019-01-15T11:46:46.962Z,99322.95
2019-01-15T11:48:47.913Z,99325.29
2019-01-15T11:50:49.497Z,99314.08
2019-01-15T11:52:50.844Z,99311.73
2019-01-15T11:54:51.783Z,99303.39
2019-01-15T11:56:52.730Z,99305.73
2019-01-15T11:58:53.970Z,99308.55
2019-01-15T12:00:55.064Z,99305.98
2019-01-15T12:02:56.259Z,99316.64
2019-01-15T12:04:59.379Z,99316.99
2019-01-15T12:07:08.814Z,99296.23
2019-01-15T12:09:09.905Z,99325.05
2019-01-15T12:13:44.127Z,99313.70
2019-01-15T12:15:44.999Z,99316.92
2019-01-15T12:17:47.011Z,99303.65
2019-01-15T12:19:47.633Z,99302.37
2019-01-15T12:21:48.540Z,99308.63
2019-01-15T12:23:51.520Z,99298.04
2019-01-15T12:25:52.567Z,99299.37
2019-01-15T12:27:53.811Z,99305.53
2019-01-15T12:29:56.619Z,99301.25
2019-01-15T12:31:57.365Z,99304.61
2019-01-15T12:33:58.978Z,99295.53
2019-01-15T12:36:00.018Z,99299.52
2019-01-15T12:38:02.207Z,99300.25
2019-01-15T12:40:06.326Z,99287.20
2019-01-15T12:42:07.385Z,99290.00
2019-01-15T12:44:08.077Z,99298.22
2019-01-15T12:46:08.879Z,99293.94
2019-01-15T12:48:09.788Z,99302.55
2019-01-15T12:50:10.726Z,99289.70
2019-01-15T12:52:11.684Z,99284.64
2019-01-15T12:54:12.491Z,99284.64
2019-01-15T12:56:13.169Z,99288.50
2019-01-15T12:58:14.280Z,99265.84
2019-01-15T13:00:15.087Z,99276.94
2019-01-15T13:02:16.046Z,99278.88
2019-01-15T13:04:17.800Z,99266.30
2019-01-15T13:06:18.655Z,99258.11
2019-01-15T13:08:25.494Z,99267.05
2019-01-15T13:10:32.239Z,99272.70
2019-01-15T13:12:32.877Z,99254.08
2019-01-15T13:14:33.883Z,99260.09
2019-01-15T13:16:36.952Z,99265.89
2019-01-15T13:18:37.819Z,99264.28
2019-01-15T13:20:39.096Z,99259.84
2019-01-15T13:22:50.322Z,99260.05
2019-01-15T13:24:47.477Z,99261.61
2019-01-15T13:26:53.269Z,99255.13
2019-01-15T13:28:54.188Z,99276.61
2019-01-15T13:30:55.193Z,99256.14
2019-01-15T13:32:56.291Z,99254.45
2019-01-15T13:34:56.998Z,99243.22
2019-01-15T13:36:58.148Z,99257.89
2019-01-15T13:38:59.400Z,99256.35
2019-01-15T13:41:01.599Z,99250.39
2019-01-15T13:43:05.249Z,99250.88
2019-01-15T13:45:09.465Z,99243.71
2019-01-15T13:47:10.527Z,99241.20
2019-01-15T13:49:18.061Z,99252.27
2019-01-15T13:54:02.343Z,99238.61
2019-01-15T13:56:03.649Z,99252.02
2019-01-15T13:58:02.256Z,99247.81
2019-01-15T14:00:06.846Z,99248.77
2019-01-15T14:02:09.303Z,99251.84
2019-01-15T14:04:10.475Z,99232.73
2019-01-15T14:06:11.855Z,99247.34
2019-01-15T14:08:12.697Z,99230.96
2019-01-15T14:10:15.827Z,99239.34
2019-01-15T14:12:17.132Z,99222.02
2019-01-15T14:14:18.142Z,99222.63
2019-01-15T14:16:19.166Z,99231.70
2019-01-15T14:18:20.955Z,99231.01
2019-01-15T14:20:22.070Z,99228.41
2019-01-15T14:22:23.152Z,99230.09
2019-01-15T14:24:29.363Z,99230.23
2019-01-15T14:26:30.096Z,99233.08
2019-01-15T14:28:30.822Z,99213.98
2019-01-15T14:30:33.835Z,99214.93
2019-01-15T14:32:35.301Z,99227.33
2019-01-15T14:34:42.092Z,99239.82
2019-01-15T14:37:15.953Z,99233.59
2019-01-15T14:38:57.358Z,99226.20
2019-01-15T14:41:02.691Z,99217.91
2019-01-15T14:43:03.734Z,99228.32
2019-01-15T14:45:07.020Z,99224.91
2019-01-15T14:47:07.937Z,99223.39
2019-01-15T14:49:09.351Z,99220.55
2019-01-15T14:51:12.483Z,99211.86
2019-01-15T14:53:13.523Z,99217.86
2019-01-15T14:55:18.670Z,99215.78
2019-01-15T14:57:19.513Z,99227.45
2019-01-15T14:59:20.932Z,99223.91
2019-01-15T15:01:22.273Z,99209.73
2019-01-15T15:03:23.231Z,99216.48
2019-01-15T15:05:25.973Z,99221.23
2019-01-15T15:07:31.501Z,99222.36
2019-01-15T15:09:32.596Z,99221.19
2019-01-15T15:11:37.895Z,99215.66
2019-01-15T15:13:40.325Z,99218.42
2019-01-15T15:16:11.924Z,99210.22
2019-01-15T15:18:04.275Z,99212.24
2019-01-15T15:20:22.625Z,99219.49
2019-01-15T15:22:27.377Z,99221.92
2019-01-15T15:24:26.116Z,99222.39
2019-01-15T15:26:27.166Z,99225.15
2019-01-15T15:28:28.124Z,99228.40
2019-01-15T15:30:29.031Z,99219.66
2019-01-15T15:32:32.195Z,99215.42
2019-01-15T15:34:37.930Z,99219.97
2019-01-15T15:39:13.467Z,99220.95
2019-01-15T15:41:15.647Z,99211.70
2019-01-15T15:43:18.713Z,99227.37
2019-01-15T15:45:20.721Z,99219.34
2019-01-15T15:47:21.714Z,99217.70
2019-01-15T15:49:23.964Z,99223.10
2019-01-15T15:51:24.770Z,99231.50
2019-01-15T15:53:31.137Z,99212.55
2019-01-15T15:55:43.433Z,99225.34
2019-01-15T15:57:46.868Z,99220.80
2019-01-15T15:59:47.849Z,99228.66
2019-01-15T16:01:49.239Z,99236.81
2019-01-15T16:03:50.532Z,99231.37
2019-01-15T16:05:53.015Z,99231.25
2019-01-15T16:07:55.755Z,99224.68
2019-01-15T16:09:56.621Z,99230.43
2019-01-15T16:11:57.507Z,99224.42
2019-01-15T16:13:58.724Z,99240.92
2019-01-15T16:15:59.900Z,99237.06
2019-01-15T16:18:00.968Z,99240.72
2019-01-15T16:20:04.873Z,99236.94
2019-01-15T16:22:06.968Z,99234.28
2019-01-15T16:24:07.833Z,99237.22
2019-01-15T16:26:09.743Z,99234.28
2019-01-15T16:28:12.771Z,99229.55
2019-01-15T16:30:15.153Z,99235.42
2019-01-15T16:32:16.575Z,99233.15
2019-01-15T16:34:17.664Z,99239.87
2019-01-15T16:36:19.785Z,99244.61
2019-01-15T16:38:20.953Z,99224.29
2019-01-15T16:40:25.007Z,99240.52
2019-01-15T16:42:43.094Z,99239.37
2019-01-15T16:45:06.468Z,99221.80
2019-01-15T16:47:08.945Z,99227.67
2019-01-15T16:49:09.588Z,99233.97
2019-01-15T16:51:10.540Z,99223.34
2019-01-15T16:53:14.478Z,99227.11
2019-01-15T16:55:14.971Z,99222.87
2019-01-15T16:57:15.701Z,99225.73
2019-01-15T16:59:16.709Z,99222.12
2019-01-15T17:01:19.168Z,99228.72
2019-01-15T17:05:48.286Z,99225.66
2019-01-15T17:07:49.070Z,99227.33
2019-01-15T17:09:49.826Z,99227.52
2019-01-15T17:11:50.629Z,99212.73
2019-01-15T17:13:51.424Z,99220.70
2019-01-15T17:15:52.307Z,99203.01
2019-01-15T17:17:53.312Z,99221.64
2019-01-15T17:24:50.815Z,99222.89
2019-01-15T17:26:51.597Z,99220.20
2019-01-15T17:29:02.833Z,99225.98
2019-01-15T17:31:09.805Z,99212.86
2019-01-15T17:33:13.102Z,99222.72
2019-01-15T17:37:51.849Z,99226.35
2019-01-15T17:45:06.442Z,99223.16
2019-01-15T17:47:10.302Z,99222.44
2019-01-15T17:49:19.234Z,99229.86
2019-01-15T17:51:15.830Z,99221.87
2019-01-15T17:58:53.353Z,99224.98
2019-01-15T18:00:47.766Z,99228.22
2019-01-15T18:03:01.527Z,99221.77
2019-01-15T18:05:04.019Z,99217.79
2019-01-15T18:07:11.047Z,99217.61
2019-01-15T18:09:12.334Z,99223.41
2019-01-15T18:11:21.853Z,99208.95
2019-01-15T18:13:41.091Z,99206.10
2019-01-15T18:15:21.179Z,99202.50
2019-01-15T18:17:24.330Z,99224.11
2019-01-15T18:19:37.567Z,99216.56
2019-01-15T18:21:44.317Z,99218.16
2019-01-15T18:23:42.726Z,99223.19
2019-01-15T18:28:35.843Z,99220.80
2019-01-15T18:30:37.094Z,99229.77
2019-01-15T18:35:31.218Z,99225.78
2019-01-15T18:37:32.450Z,99230.31
2019-01-15T18:39:33.203Z,99231.19
2019-01-15T18:41:34.260Z,99224.69
2019-01-15T18:43:37.157Z,99225.44
2019-01-15T18:45:41.968Z,99220.66
2019-01-15T18:50:36.102Z,99229.77
2019-01-15T18:52:38.286Z,99235.19
2019-01-15T18:54:39.578Z,99215.30
2019-01-15T18:56:40.802Z,99233.77
2019-01-15T18:58:45.989Z,99236.38
2019-01-15T19:00:45.642Z,99216.10
2019-01-15T19:02:46.627Z,99237.08
2019-01-15T19:05:04.664Z,99233.17
2019-01-15T19:07:11.159Z,99234.64
2019-01-15T19:09:12.283Z,99237.23
2019-01-15T19:11:31.924Z,99236.51
2019-01-15T19:13:33.101Z,99235.44
2019-01-15T19:15:33.753Z,99224.12
2019-01-15T19:17:36.511Z,99227.92
2019-01-15T19:19:37.639Z,99224.03
2019-01-15T19:21:38.506Z,99228.06
2019-01-15T19:23:39.485Z,99221.34
2019-01-15T19:25:42.336Z,99200.94
2019-01-15T19:27:44.156Z,99222.39
2019-01-15T19:29:46.678Z,99219.58
2019-01-15T19:31:54.759Z,99222.91
2019-01-15T19:42:02.911Z,99209.04
2019-01-15T19:44:21.756Z,99215.38
2019-01-15T19:46:33.026Z,99212.94
2019-01-15T19:48:28.586Z,99217.95
2019-01-15T19:50:29.601Z,99208.16
2019-01-15T19:52:32.753Z,99220.98
2019-01-15T19:54:33.839Z,99211.34
2019-01-15T19:56:34.945Z,99210.77
2019-01-15T19:58:37.081Z,99213.88
2019-01-15T20:00:43.610Z,99213.78
2019-01-15T20:02:44.376Z,99216.87
2019-01-15T20:04:45.681Z,99220.85
2019-01-15T20:06:46.391Z,99217.69
2019-01-15T20:08:47.505Z,99211.42
2019-01-15T20:10:48.549Z,99215.50
2019-01-15T20:12:49.324Z,99218.53
2019-01-15T20:14:50.756Z,99212.86
2019-01-15T20:16:51.376Z,99207.58
2019-01-15T20:18:52.632Z,99213.23
2019-01-15T20:20:53.951Z,99221.96
2019-01-15T20:22:56.185Z,99217.03
2019-01-15T20:24:57.199Z,99206.73
2019-01-15T20:26:59.607Z,99219.00
2019-01-15T20:29:00.259Z,99221.42
2019-01-15T20:31:02.107Z,99214.63
2019-01-15T20:33:27.297Z,99217.95
2019-01-15T20:35:08.421Z,99212.08
2019-01-15T20:37:09.189Z,99212.81
2019-01-15T20:39:11.617Z,99213.06
2019-01-15T20:43:47.592Z,99215.16
2019-01-15T20:45:48.689Z,99215.61
2019-01-15T20:47:49.738Z,99218.45
2019-01-15T20:49:53.777Z,99211.94
2019-01-15T20:51:55.905Z,99213.72
2019-01-15T20:54:00.143Z,99223.50
2019-01-15T20:56:05.938Z,99209.48
2019-01-15T20:58:06.335Z,99220.05
2019-01-15T21:00:09.298Z,99213.58
2019-01-15T21:02:10.514Z,99205.12
2019-01-15T21:04:11.873Z,99211.59
2019-01-15T21:06:15.337Z,99216.20
2019-01-15T21:08:16.419Z,99200.04
2019-01-15T21:10:17.533Z,99204.05
2019-01-15T21:12:25.861Z,99202.93
2019-01-15T21:14:28.278Z,99197.45
2019-01-15T21:16:29.199Z,99204.89
2019-01-15T21:23:32.740Z,99199.24
2019-01-15T21:25:33.429Z,99196.08
2019-01-15T21:27:34.482Z,99193.00
2019-01-15T21:29:35.546Z,99194.77
2019-01-15T21:31:36.476Z,99203.52
2019-01-15T21:33:37.623Z,99196.55
2019-01-15T21:35:41.214Z,99189.23
2019-01-15T21:37:49.366Z,99201.23
2019-01-15T21:39:53.760Z,99197.80
2019-01-15T21:42:00.459Z,99195.50
2019-01-15T21:43:58.802Z,99198.44
2019-01-15T21:46:01.767Z,99179.18
2019-01-15T21:48:03.038Z,99195.70
2019-01-15T21:50:05.740Z,99192.87
2019-01-15T21:52:07.052Z,99190.66
2019-01-15T21:54:10.046Z,99198.70
2019-01-15T21:56:11.156Z,99184.31
2019-01-15T21:58:14.333Z,99193.12
2019-01-15T22:00:16.421Z,99187.97
2019-01-15T22:02:20.823Z,99188.54
2019-01-15T22:04:23.372Z,99192.44
2019-01-15T22:06:39.424Z,99193.61
2019-01-15T22:08:40.984Z,99188.34
2019-01-15T22:10:40.904Z,99187.73
2019-01-15T22:12:41.917Z,99183.71
2019-01-15T22:14:44.965Z,99192.05
2019-01-15T22:16:46.959Z,99191.23
2019-01-15T22:18:54.308Z,99193.53
2019-01-15T22:20:51.388Z,99182.69
2019-01-15T22:22:52.358Z,99184.41
2019-01-15T22:24:54.631Z,99187.97
2019-01-15T22:26:57.945Z,99179.68
2019-01-15T22:29:10.360Z,99181.72
2019-01-15T22:31:07.332Z,99182.79
2019-01-15T22:33:08.661Z,99182.54
2019-01-15T22:35:09.581Z,99175.38
2019-01-15T22:37:16.532Z,99184.06
2019-01-15T22:39:23.233Z,99166.71
2019-01-15T22:41:27.282Z,99177.84
2019-01-15T22:43:36.443Z,99161.31
2019-01-15T22:46:21.221Z,99169.02
2019-01-15T22:51:14.424Z,99161.86
2019-01-15T22:53:18.228Z,99162.83
2019-01-15T22:57:06.307Z,99161.41
2019-01-15T22:57:52.352Z,99154.59
2019-01-15T22:59:53.509Z,99158.82
2019-01-15T23:01:54.716Z,99144.66
2019-01-15T23:04:01.644Z,99156.61
2019-01-15T23:06:02.498Z,99144.78
2019-01-15T23:08:28.019Z,99154.69
2019-01-15T23:10:56.832Z,99158.58
2019-01-15T23:12:59.741Z,99146.03
2019-01-15T23:14:53.192Z,99148.89
2019-01-15T23:20:43.789Z,99135.13
2019-01-15T23:22:05.361Z,99142.13
2019-01-15T23:24:08.312Z,99141.65
2019-01-15T23:26:11.546Z,99143.01
2019-01-15T23:28:12.544Z,99140.18
2019-01-15T23:30:17.590Z,99139.56
2019-01-15T23:32:18.588Z,99142.05
2019-01-15T23:34:20.483Z,99139.93
2019-01-15T23:36:24.072Z,99137.22
2019-01-15T23:38:24.901Z,99126.82
2019-01-15T23:40:25.838Z,99137.67
2019-01-15T23:42:29.259Z,99135.06
2019-01-15T23:44:33.521Z,99135.80
2019-01-15T23:46:36.376Z,99135.23
2019-01-15T23:48:37.580Z,99132.59
2019-01-15T23:50:46.455Z,99118.94
2019-01-15T23:52:44.365Z,99132.94
2019-01-15T23:54:48.312Z,99133.79
2019-01-15T23:56:49.525Z,99125.60
2019-01-15T23:58:52.144Z,99130.83
